Time;durP1;ratioP1;P1;durP2;ratioP2;P2;SDS_P1;SDS_P2;PMS_P1;PMS_P2;Temp;Humidity;BMP_temperature;BMP_pressure;BME280_temperature;BME280_humidity;BME280_pressure;Samples;Min_cycle;Max_cycle;Signal;HPM_P1;HPM_P2
2022/01/13 00:01:38;;;;;;;157.40;49.95;;;;;;;3.30;94.22;104057.84;7397137;19;20014;-65
2022/01/13 00:04:08;;;;;;;164.43;52.08;;;;;;;3.32;93.90;104063.06;7394208;19;20029;-66
2022/01/13 00:06:37;;;;;;;132.20;48.53;;;;;;;3.23;93.25;104063.59;7393260;19;20029;-65
2022/01/13 00:09:09;;;;;;;123.13;45.35;;;;;;;3.15;93.85;104065.88;7392499;19;20017;-66
2022/01/13 00:11:39;;;;;;;130.65;45.60;;;;;;;3.15;93.94;104054.66;7394617;19;20021;-65
2022/01/13 00:14:24;;;;;;;120.53;44.38;;;;;;;3.12;93.65;104052.81;7393338;19;20023;-64
2022/01/13 00:19:55;;;;;;;124.57;44.70;;;;;;;3.19;93.83;104051.34;7390982;19;20021;-63
2022/01/13 00:22:38;;;;;;;124.68;45.65;;;;;;;3.24;93.80;104058.47;7393094;19;20408;-64
2022/01/13 00:25:14;;;;;;;123.97;46.30;;;;;;;3.25;93.40;104060.25;7392329;19;20054;-66
2022/01/13 00:27:50;;;;;;;129.50;47.85;;;;;;;3.25;93.51;104059.34;7390250;19;20490;-64
2022/01/13 00:30:20;;;;;;;144.75;49.60;;;;;;;3.20;93.37;104058.31;7392839;19;20014;-64
2022/01/13 00:32:49;;;;;;;123.68;45.67;;;;;;;3.20;93.32;104058.31;7392686;19;20061;-63
2022/01/13 00:35:18;;;;;;;140.57;48.65;;;;;;;3.15;93.36;104052.94;7392743;19;20440;-64
2022/01/13 00:37:47;;;;;;;124.25;45.63;;;;;;;3.10;93.23;104049.28;7391395;19;20015;-65
2022/01/13 00:40:19;;;;;;;131.00;46.75;;;;;;;3.06;93.60;104043.09;7391943;19;20018;-64
2022/01/13 00:42:47;;;;;;;129.43;45.45;;;;;;;3.09;93.81;104035.44;7392583;19;20347;-64
2022/01/13 00:45:16;;;;;;;129.98;45.08;;;;;;;3.11;93.64;104045.88;7390821;19;20025;-64
2022/01/13 00:47:45;;;;;;;130.25;46.78;;;;;;;3.06;93.79;104042.22;7390572;19;20022;-65
2022/01/13 00:50:14;;;;;;;120.80;45.40;;;;;;;3.06;94.10;104047.41;7391840;19;20011;-64
2022/01/13 00:52:43;;;;;;;168.40;48.63;;;;;;;3.06;93.99;104052.59;7392943;19;20474;-65
2022/01/13 00:55:20;;;;;;;118.80;45.80;;;;;;;3.06;94.20;104050.88;7391170;19;20021;-66
2022/01/13 00:57:51;;;;;;;127.13;45.72;;;;;;;3.05;94.32;104062.06;7390674;19;20426;-65
2022/01/13 01:00:20;;;;;;;128.20;46.45;;;;;;;3.05;94.29;104056.88;7392334;19;20029;-64
2022/01/13 01:02:49;;;;;;;144.43;49.97;;;;;;;3.07;94.35;104067.31;7391771;19;20022;-65
2022/01/13 01:05:17;;;;;;;126.47;46.50;;;;;;;3.08;94.49;104064.78;7391273;19;20017;-65
2022/01/13 01:07:46;;;;;;;141.98;48.80;;;;;;;3.10;94.54;104059.66;7390879;19;20455;-64
2022/01/13 01:10:15;;;;;;;133.23;48.08;;;;;;;3.11;94.64;104057.13;7390023;19;20010;-65
2022/01/13 01:12:44;;;;;;;138.82;48.35;;;;;;;3.14;94.64;104058.06;7391281;19;20025;-65
2022/01/13 01:15:15;;;;;;;135.68;47.58;;;;;;;3.17;94.63;104050.44;7391130;19;20122;-65
2022/01/13 01:17:50;;;;;;;139.93;48.97;;;;;;;3.17;94.54;104053.88;7389640;19;20014;-65
2022/01/13 01:20:20;;;;;;;140.98;49.33;;;;;;;3.16;94.49;104049.53;7391605;19;20444;-64
2022/01/13 01:23:10;;;;;;;149.43;49.85;;;;;;;3.09;94.26;104040.63;7390957;19;20141;-63
2022/01/13 01:26:00;;;;;;;136.05;47.55;;;;;;;3.01;94.52;104036.88;7389540;19;20658;-64
2022/01/13 01:28:38;;;;;;;143.65;49.65;;;;;;;3.00;94.82;104035.09;7389872;19;20015;-64
2022/01/13 01:31:11;;;;;;;145.07;47.92;;;;;;;2.98;95.10;104033.25;7390655;19;20047;-66
2022/01/13 01:33:48;;;;;;;153.60;47.97;;;;;;;3.00;95.16;104040.28;7392267;19;20030;-64
2022/01/13 01:36:18;;;;;;;158.75;48.05;;;;;;;3.04;95.19;104036.97;7391711;19;20021;-64
2022/01/13 01:38:51;;;;;;;151.60;49.88;;;;;;;2.98;95.00;104044.53;7389996;19;20119;-64
2022/01/13 01:41:20;;;;;;;137.80;46.58;;;;;;;3.01;95.38;104036.88;7389203;19;20018;-65
2022/01/13 01:43:50;;;;;;;129.65;45.28;;;;;;;3.03;95.26;104032.63;7391075;19;20011;-65
2022/01/13 01:46:22;;;;;;;125.38;46.15;;;;;;;3.03;95.31;104042.97;7389308;19;20035;-65
2022/01/13 01:48:51;;;;;;;131.50;45.67;;;;;;;3.00;95.12;104037.69;7390280;19;20014;-65
2022/01/13 01:51:19;;;;;;;119.13;43.92;;;;;;;3.04;95.16;104043.88;7391568;19;20036;-65
2022/01/13 01:53:48;;;;;;;115.63;41.17;;;;;;;3.03;94.88;104040.38;7391687;19;20010;-63
2022/01/13 01:56:17;;;;;;;123.00;43.58;;;;;;;2.97;95.15;104044.47;7388634;19;20014;-63
2022/01/13 01:58:46;;;;;;;127.18;42.90;;;;;;;3.00;95.34;104052.34;7389796;19;20524;-63
2022/01/13 02:01:15;;;;;;;119.10;41.65;;;;;;;2.97;95.28;104047.06;7392107;19;20428;-62
2022/01/13 02:03:47;;;;;;;130.35;41.97;;;;;;;3.03;95.35;104040.38;7391321;19;20145;-63
2022/01/13 02:06:15;;;;;;;126.72;43.33;;;;;;;3.06;95.45;104040.50;7389805;19;20007;-63
2022/01/13 02:08:44;;;;;;;120.20;42.15;;;;;;;3.11;95.57;104043.28;7389941;19;20374;-63
2022/01/13 02:11:13;;;;;;;117.65;43.25;;;;;;;3.12;95.46;104045.03;7391107;19;20463;-64
2022/01/13 02:13:49;;;;;;;109.20;41.00;;;;;;;3.13;95.30;104045.94;7391252;19;20059;-63
2022/01/13 02:16:37;;;;;;;134.50;44.05;;;;;;;3.14;95.22;104046.00;7390509;19;20014;-64
2022/01/13 02:19:10;;;;;;;124.75;43.25;;;;;;;3.11;95.15;104049.34;7388964;19;20014;-62
2022/01/13 02:21:42;;;;;;;107.00;39.67;;;;;;;3.08;94.96;104046.63;7395002;19;20026;-63
2022/01/13 02:24:11;;;;;;;120.72;40.83;;;;;;;3.06;95.31;104032.72;7398684;19;20010;-63
2022/01/13 02:26:40;;;;;;;116.38;40.83;;;;;;;3.09;95.62;104031.97;7395045;19;20006;-63
2022/01/13 02:29:09;;;;;;;101.95;39.00;;;;;;;3.09;95.48;104035.44;7398130;19;20015;-64
2022/01/13 02:31:37;;;;;;;128.45;39.45;;;;;;;3.07;95.71;104029.31;7397493;19;20010;-65
2022/01/13 02:34:06;;;;;;;107.70;38.97;;;;;;;3.09;95.96;104027.66;7395677;19;20044;-63
2022/01/13 02:36:37;;;;;;;117.03;39.78;;;;;;;3.14;95.88;104029.56;7397284;19;20030;-63
2022/01/13 02:39:08;;;;;;;100.07;38.42;;;;;;;3.14;95.66;104032.13;7395583;19;20324;-63
2022/01/13 02:41:37;;;;;;;151.60;41.70;;;;;;;3.11;95.34;104030.34;7398290;19;20487;-62
2022/01/13 02:44:13;;;;;;;132.45;41.63;;;;;;;3.07;95.39;104031.03;7397916;19;20383;-63
2022/01/13 02:47:07;;;;;;;208.18;44.45;;;;;;;3.03;95.53;104030.03;7396140;19;20466;-63
2022/01/13 02:49:36;;;;;;;105.38;39.10;;;;;;;3.00;95.87;104035.09;7397240;19;20019;-64
2022/01/13 02:52:07;;;;;;;106.80;40.05;;;;;;;3.04;96.13;104033.50;7397600;19;20041;-64
2022/01/13 02:54:38;;;;;;;109.15;38.05;;;;;;;3.04;96.33;104033.50;7394356;19;20007;-64
2022/01/13 02:57:07;;;;;;;107.47;38.83;;;;;;;3.12;96.37;104032.09;7396835;19;20017;-63
2022/01/13 02:59:36;;;;;;;116.57;38.55;;;;;;;3.16;96.20;104035.69;7395316;19;20011;-64
2022/01/13 03:02:05;;;;;;;102.57;36.90;;;;;;;3.20;96.23;104028.09;7394045;19;20355;-66
2022/01/13 03:04:34;;;;;;;106.85;35.78;;;;;;;3.16;95.68;104025.31;7393868;19;20014;-65
2022/01/13 03:07:03;;;;;;;129.65;39.35;;;;;;;3.15;95.83;104028.72;7390136;19;20015;-66
2022/01/13 03:09:32;;;;;;;109.55;38.33;;;;;;;3.15;95.84;104033.91;7394338;19;20395;-65
2022/01/13 03:12:04;;;;;;;102.57;38.30;;;;;;;3.17;95.79;104025.38;7393893;19;20014;-66
2022/01/13 03:14:33;;;;;;;100.10;37.10;;;;;;;3.13;95.71;104020.91;7393292;19;20006;-65
2022/01/13 03:17:01;;;;;;;95.35;36.30;;;;;;;3.20;95.99;104015.13;7392335;19;20025;-66
2022/01/13 03:19:30;;;;;;;95.28;35.45;;;;;;;3.20;95.63;104011.66;7393115;19;20622;-65
2022/01/13 03:22:00;;;;;;;83.07;34.67;;;;;;;3.24;95.74;104017.03;7393468;19;20010;-65
2022/01/13 03:24:30;;;;;;;90.05;32.30;;;;;;;3.21;95.45;104011.72;7394298;19;20451;-66
2022/01/13 03:27:02;;;;;;;89.60;34.67;;;;;;;3.22;95.55;104010.00;7390144;19;20026;-66
2022/01/13 03:29:34;;;;;;;80.22;32.28;;;;;;;3.20;95.64;104007.34;7393087;19;20064;-65
2022/01/13 03:32:03;;;;;;;83.82;34.00;;;;;;;3.20;95.51;103998.72;7389270;19;20018;-64
2022/01/13 03:34:31;;;;;;;121.40;36.13;;;;;;;3.17;95.49;104003.78;7392560;19;20010;-65
2022/01/13 03:37:00;;;;;;;80.70;33.03;;;;;;;3.17;95.51;104004.66;7391765;19;20025;-65
2022/01/13 03:39:30;;;;;;;81.30;33.50;;;;;;;3.09;95.75;104001.75;7392458;19;20066;-65
2022/01/13 03:42:01;;;;;;;84.55;31.77;;;;;;;3.05;95.92;103996.41;7391798;19;20507;-64
2022/01/13 03:44:30;;;;;;;82.18;31.23;;;;;;;3.04;96.03;103997.25;7392936;19;20011;-64
2022/01/13 03:47:04;;;;;;;74.15;30.42;;;;;;;3.08;96.37;104004.28;7389415;19;20398;-64
2022/01/13 03:49:34;;;;;;;73.30;31.42;;;;;;;3.15;96.68;103997.63;7391332;19;20478;-64
2022/01/13 03:52:35;;;;;;;75.28;30.90;;;;;;;3.16;96.20;104002.88;7391492;19;20022;-65
2022/01/13 03:55:43;;;;;;;83.95;31.20;;;;;;;3.15;96.24;103997.63;7391295;19;20018;-65
2022/01/13 03:58:54;;;;;;;158.68;34.15;;;;;;;3.23;96.11;103996.22;7390059;19;20015;-64
2022/01/13 04:02:02;;;;;;;81.13;31.77;;;;;;;3.14;95.83;103998.47;7392129;19;20014;-65
2022/01/13 04:04:36;;;;;;;123.88;32.83;;;;;;;3.07;95.58;103995.63;7392021;19;20019;-65
2022/01/13 04:07:13;;;;;;;74.68;30.02;;;;;;;3.05;95.69;103997.31;7389508;19;20018;-65
2022/01/13 04:10:22;;;;;;;79.60;31.73;;;;;;;3.08;95.87;103999.09;7391202;19;20018;-64
2022/01/13 04:12:51;;;;;;;73.63;29.80;;;;;;;3.14;96.10;103998.47;7390664;19;20013;-64
2022/01/13 04:15:21;;;;;;;74.80;29.58;;;;;;;3.20;96.08;104001.31;7391053;19;20364;-64
2022/01/13 04:17:50;;;;;;;85.30;32.65;;;;;;;3.18;95.70;103995.16;7389132;19;20021;-64
2022/01/13 04:20:22;;;;;;;69.30;29.10;;;;;;;3.16;95.29;103992.50;7391021;19;20007;-65
2022/01/13 04:22:50;;;;;;;70.47;29.08;;;;;;;3.15;95.17;103990.75;7391640;19;20014;-65
2022/01/13 04:25:22;;;;;;;82.88;30.88;;;;;;;3.10;95.27;103993.16;7391457;19;20017;-65
2022/01/13 04:27:51;;;;;;;74.82;29.17;;;;;;;3.06;95.48;103985.22;7387927;19;20024;-66
2022/01/13 04:30:46;;;;;;;80.57;31.95;;;;;;;3.01;95.49;103991.91;7390127;19;20128;-63
2022/01/13 04:33:15;;;;;;;77.55;29.77;;;;;;;3.07;95.48;103989.59;7390564;19;20017;-66
2022/01/13 04:35:48;;;;;;;78.50;30.83;;;;;;;3.13;95.55;103982.03;7390532;19;20021;-61
2022/01/13 04:38:17;;;;;;;74.72;31.85;;;;;;;3.14;95.34;103985.50;7390240;19;20019;-66
2022/01/13 04:40:54;;;;;;;75.30;30.55;;;;;;;3.05;94.90;103986.94;7390016;19;20007;-65
2022/01/13 04:43:23;;;;;;;79.10;31.25;;;;;;;2.99;94.89;103999.63;7390288;19;20081;-64
2022/01/13 04:45:52;;;;;;;86.50;33.30;;;;;;;2.97;95.25;103996.13;7389325;19;20021;-66
2022/01/13 04:48:21;;;;;;;76.88;29.67;;;;;;;2.94;95.58;104004.66;7392207;19;20020;-66
2022/01/13 04:50:53;;;;;;;102.60;32.33;;;;;;;2.99;95.69;104010.00;7391596;19;20018;-66
2022/01/13 04:53:22;;;;;;;76.03;31.60;;;;;;;3.00;95.47;104001.41;7390993;19;20336;-65
2022/01/13 04:55:58;;;;;;;74.38;30.45;;;;;;;2.89;95.16;104011.34;7389066;19;20011;-65
2022/01/13 04:58:26;;;;;;;100.53;32.00;;;;;;;2.83;95.49;104011.09;7388998;19;20329;-65
2022/01/13 05:00:55;;;;;;;72.95;31.25;;;;;;;2.79;95.82;104009.22;7389706;19;20019;-64
2022/01/13 05:03:24;;;;;;;74.70;30.15;;;;;;;2.83;95.94;104008.50;7390901;19;20036;-65
2022/01/13 05:05:55;;;;;;;71.50;29.88;;;;;;;2.85;96.34;104011.16;7389952;19;20832;-66
2022/01/13 05:08:24;;;;;;;74.63;31.48;;;;;;;2.89;96.44;104005.28;7390268;19;20526;-66
2022/01/13 05:10:53;;;;;;;76.70;32.05;;;;;;;2.90;96.22;104010.53;7391126;19;20023;-65
2022/01/13 05:13:22;;;;;;;76.13;30.52;;;;;;;2.88;96.02;104008.69;7391158;19;20383;-65
2022/01/13 05:15:53;;;;;;;94.78;31.67;;;;;;;2.83;95.68;104018.00;7389889;19;20022;-66
2022/01/13 05:18:29;;;;;;;73.32;30.35;;;;;;;2.83;96.17;104013.69;7389665;19;20018;-63
2022/01/13 05:21:04;;;;;;;91.05;30.00;;;;;;;2.78;95.85;104015.25;7391178;19;20069;-65
2022/01/13 05:23:32;;;;;;;71.18;30.38;;;;;;;2.71;95.98;104014.09;7390439;19;20010;-66
2022/01/13 05:26:02;;;;;;;76.28;30.77;;;;;;;2.67;96.25;104007.03;7389029;19;20015;-66
2022/01/13 05:28:31;;;;;;;77.38;31.70;;;;;;;2.68;96.51;104003.63;7389692;19;20471;-65
2022/01/13 05:30:59;;;;;;;79.47;31.10;;;;;;;2.69;96.64;103999.31;7390188;19;20056;-66
2022/01/13 05:33:28;;;;;;;79.50;31.25;;;;;;;2.69;96.59;103989.84;7389142;19;20022;-64
2022/01/13 05:35:57;;;;;;;75.93;29.98;;;;;;;2.71;96.67;103985.63;7388928;19;20006;-65
2022/01/13 05:38:28;;;;;;;72.97;29.20;;;;;;;2.82;96.74;103979.97;7388945;19;20095;-65
2022/01/13 05:40:58;;;;;;;84.55;29.48;;;;;;;2.88;96.56;103995.75;7389072;19;20006;-68
2022/01/13 05:43:27;;;;;;;73.45;29.55;;;;;;;2.89;96.38;103987.16;7388389;19;20121;-66
2022/01/13 05:45:55;;;;;;;69.35;28.48;;;;;;;2.89;96.12;103992.34;7389115;19;20020;-65
2022/01/13 05:48:24;;;;;;;69.50;27.92;;;;;;;2.92;96.07;103990.75;7386919;19;20332;-64
2022/01/13 05:50:53;;;;;;;100.35;30.02;;;;;;;2.86;95.74;104000.88;7389060;19;20461;-66
2022/01/13 05:53:22;;;;;;;65.75;27.30;;;;;;;2.85;95.98;104000.81;7388910;19;20007;-66
2022/01/13 05:55:54;;;;;;;64.63;27.58;;;;;;;2.81;95.95;103993.72;7392674;19;20490;-66
2022/01/13 05:58:23;;;;;;;110.50;29.75;;;;;;;2.79;95.99;103998.84;7401917;19;20053;-63
2022/01/13 06:00:51;;;;;;;66.13;27.27;;;;;;;2.75;95.98;103999.56;7403278;19;20018;-65
2022/01/13 06:03:20;;;;;;;84.72;28.65;;;;;;;2.76;96.31;103996.16;7403645;19;20006;-65
2022/01/13 06:05:49;;;;;;;65.88;25.67;;;;;;;2.77;96.24;103991.03;7402102;19;20021;-65
2022/01/13 06:08:18;;;;;;;69.55;27.17;;;;;;;2.73;96.18;103996.03;7401303;19;20018;-66
2022/01/13 06:10:46;;;;;;;73.88;27.65;;;;;;;2.74;96.46;103995.22;7402819;19;20011;-66
2022/01/13 06:13:18;;;;;;;72.88;27.85;;;;;;;2.75;96.60;103995.28;7402628;19;20070;-66
2022/01/13 06:15:47;;;;;;;64.50;26.50;;;;;;;2.76;96.53;103990.97;7401918;19;20083;-66
2022/01/13 06:18:17;;;;;;;98.40;28.52;;;;;;;2.81;96.68;103993.72;7401575;19;20014;-66
2022/01/13 06:20:46;;;;;;;67.05;27.33;;;;;;;2.77;96.31;103982.38;7403035;19;20348;-67
2022/01/13 06:23:15;;;;;;;66.22;27.77;;;;;;;2.77;96.32;103988.44;7402701;19;20014;-66
2022/01/13 06:25:44;;;;;;;57.45;25.95;;;;;;;2.80;96.41;103981.63;7401946;19;20133;-64
2022/01/13 06:28:12;;;;;;;64.32;26.52;;;;;;;2.79;96.42;103985.91;7400923;19;20011;-65
2022/01/13 06:30:44;;;;;;;57.85;26.48;;;;;;;2.82;96.24;103985.16;7402515;19;20010;-65
2022/01/13 06:33:13;;;;;;;61.10;26.85;;;;;;;2.88;96.28;103987.97;7401995;19;20040;-66
2022/01/13 06:35:42;;;;;;;63.60;26.15;;;;;;;2.84;95.79;103992.16;7402028;19;20019;-64
2022/01/13 06:38:10;;;;;;;61.33;25.40;;;;;;;2.79;95.74;103990.22;7401004;19;20132;-67
2022/01/13 06:40:40;;;;;;;54.65;24.95;;;;;;;2.75;95.49;103994.38;7406621;19;20010;-66
2022/01/13 06:43:08;;;;;;;66.40;26.38;;;;;;;2.70;95.87;103999.38;7418092;19;20074;-66
2022/01/13 06:45:37;;;;;;;82.45;26.13;;;;;;;2.64;95.73;103995.69;7402307;19;20017;-65
2022/01/13 06:48:09;;;;;;;119.85;28.38;;;;;;;2.55;95.70;103991.88;7399450;19;20612;-64
2022/01/13 06:50:38;;;;;;;108.75;27.48;;;;;;;2.48;95.80;103991.56;7402357;19;20016;-66
2022/01/13 06:53:07;;;;;;;68.80;25.25;;;;;;;2.43;96.02;103997.41;7402298;19;20021;-65
2022/01/13 06:55:36;;;;;;;58.55;24.98;;;;;;;2.38;96.24;103991.19;7401878;19;20021;-66
2022/01/13 06:58:05;;;;;;;60.15;25.58;;;;;;;2.41;96.65;103990.44;7399888;19;20025;-67
2022/01/13 07:00:34;;;;;;;86.78;28.10;;;;;;;2.50;97.28;103992.53;7401221;19;20032;-65
2022/01/13 07:03:03;;;;;;;58.65;25.70;;;;;;;2.49;97.16;103996.78;7404784;19;20467;-64
2022/01/13 07:05:35;;;;;;;69.95;28.17;;;;;;;2.57;97.20;103998.00;7402515;19;20017;-67
2022/01/13 07:08:05;;;;;;;89.55;28.25;;;;;;;2.60;96.98;103997.25;7392351;19;20014;-66
2022/01/13 07:10:34;;;;;;;61.72;25.63;;;;;;;2.62;96.89;103989.53;7395186;19;20379;-66
2022/01/13 07:13:02;;;;;;;53.90;25.67;;;;;;;2.58;97.18;103989.41;7394682;19;20462;-65
2022/01/13 07:15:32;;;;;;;64.22;26.45;;;;;;;2.60;96.95;103994.66;7394394;19;20440;-65
2022/01/13 07:18:01;;;;;;;55.40;25.65;;;;;;;2.56;96.78;103991.03;7393431;19;20021;-65
2022/01/13 07:20:30;;;;;;;61.75;27.23;;;;;;;2.54;97.05;103984.06;7395566;19;20018;-66
2022/01/13 07:23:01;;;;;;;73.28;27.75;;;;;;;2.60;97.39;103990.34;7395617;19;20014;-65
2022/01/13 07:25:30;;;;;;;58.60;27.13;;;;;;;2.62;97.27;103987.81;7394753;19;20021;-67
2022/01/13 07:27:59;;;;;;;61.65;25.77;;;;;;;2.59;97.11;103982.53;7392226;19;20426;-65
2022/01/13 07:30:28;;;;;;;73.07;27.25;;;;;;;2.60;97.11;103984.31;7394996;19;20028;-65
2022/01/13 07:32:57;;;;;;;87.57;29.77;;;;;;;2.54;97.13;103982.34;7394960;19;20093;-66
2022/01/13 07:35:26;;;;;;;90.60;28.75;;;;;;;2.55;97.33;103989.31;7395425;19;20017;-66
2022/01/13 07:37:55;;;;;;;65.72;27.27;;;;;;;2.54;97.44;103986.66;7393594;19;20015;-65
2022/01/13 07:40:26;;;;;;;64.38;28.35;;;;;;;2.50;97.69;103983.03;7395814;19;20015;-67
2022/01/13 07:42:55;;;;;;;63.03;27.08;;;;;;;2.52;98.10;103990.88;7392156;19;20014;-67
2022/01/13 07:45:24;;;;;;;60.55;26.48;;;;;;;2.54;98.25;103982.34;7393677;19;20440;-65
2022/01/13 07:47:53;;;;;;;59.47;26.95;;;;;;;2.59;98.10;103987.69;7391080;19;20491;-66
2022/01/13 07:50:21;;;;;;;79.55;28.10;;;;;;;2.64;98.27;103986.19;7394021;19;20031;-66
2022/01/13 07:52:50;;;;;;;99.95;28.95;;;;;;;2.63;98.18;103988.72;7395100;19;20018;-65
2022/01/13 07:55:19;;;;;;;67.85;26.77;;;;;;;2.63;98.07;103997.38;7394421;19;20032;-66
2022/01/13 07:57:50;;;;;;;69.32;25.83;;;;;;;2.63;98.02;103999.94;7392037;19;20365;-64
2022/01/13 08:00:19;;;;;;;66.32;26.33;;;;;;;2.64;98.06;103995.69;7394337;19;20015;-66
2022/01/13 08:02:48;;;;;;;68.05;27.30;;;;;;;2.70;98.36;103996.78;7393623;19;20010;-65
2022/01/13 08:05:17;;;;;;;61.45;26.00;;;;;;;2.79;98.44;104006.63;7394378;19;20021;-66
2022/01/13 08:07:46;;;;;;;58.78;25.15;;;;;;;2.84;98.18;104005.13;7393514;19;20541;-64
2022/01/13 08:10:16;;;;;;;55.30;24.00;;;;;;;2.89;98.18;104010.47;7395624;19;20014;-66
2022/01/13 08:12:44;;;;;;;58.13;24.48;;;;;;;2.81;97.46;104020.53;7393830;19;20527;-68
2022/01/13 08:15:16;;;;;;;61.47;24.88;;;;;;;2.76;97.44;104009.09;7394286;19;20007;-67
2022/01/13 08:20:28;;;;;;;71.97;24.92;;;;;;;2.70;97.75;104014.91;7392918;19;20022;-67
2022/01/13 08:22:56;;;;;;;62.70;26.95;;;;;;;2.76;98.06;104019.44;7393716;19;20066;-68
2022/01/13 08:25:26;;;;;;;55.42;24.10;;;;;;;2.73;97.91;104015.03;7392607;19;20463;-68
2022/01/13 08:27:55;;;;;;;73.20;25.65;;;;;;;2.70;97.83;104017.50;7391110;19;20026;-65
2022/01/13 08:30:27;;;;;;;69.65;24.77;;;;;;;2.65;97.88;104019.03;7394081;19;20015;-66
2022/01/13 08:32:56;;;;;;;61.22;24.02;;;;;;;2.66;98.07;104013.00;7393716;19;20013;-67
2022/01/13 08:35:25;;;;;;;48.70;23.38;;;;;;;2.70;98.17;104020.09;7392783;19;20014;-65
2022/01/13 08:37:54;;;;;;;72.93;25.10;;;;;;;2.69;98.33;104023.50;7390847;19;20104;-65
2022/01/13 08:40:23;;;;;;;55.30;23.52;;;;;;;2.66;97.70;104022.50;7392410;19;20006;-68
2022/01/13 08:42:52;;;;;;;50.00;21.83;;;;;;;2.65;97.85;104031.97;7393340;19;20019;-64
2022/01/13 08:45:20;;;;;;;50.58;22.80;;;;;;;2.64;97.80;104026.75;7400222;19;20010;-67
2022/01/13 08:47:52;;;;;;;53.65;22.48;;;;;;;2.66;98.10;104038.03;7391792;19;20019;-65
2022/01/13 08:50:21;;;;;;;66.68;23.55;;;;;;;2.69;98.21;104028.66;7394858;19;20007;-68
2022/01/13 08:52:50;;;;;;;55.45;22.42;;;;;;;2.71;98.07;104023.59;7391943;19;20015;-64
2022/01/13 08:55:19;;;;;;;45.42;20.88;;;;;;;2.71;97.98;104021.88;7391838;19;20185;-67
2022/01/13 08:57:48;;;;;;;50.97;22.20;;;;;;;2.68;97.79;104024.34;7391195;19;20020;-64
2022/01/13 09:00:17;;;;;;;46.25;20.90;;;;;;;2.66;97.69;104028.56;7395335;19;20419;-67
2022/01/13 09:02:46;;;;;;;46.72;20.95;;;;;;;2.74;97.82;104034.94;7395882;19;20014;-65
2022/01/13 09:05:20;;;;;;;48.15;21.75;;;;;;;2.76;97.78;104033.28;7395524;19;20014;-66
2022/01/13 09:07:49;;;;;;;58.10;21.83;;;;;;;2.76;97.72;104035.88;7395630;19;20444;-63
2022/01/13 09:10:19;;;;;;;48.65;21.75;;;;;;;2.79;97.46;104036.81;7395558;19;20018;-64
2022/01/13 09:12:48;;;;;;;55.30;22.67;;;;;;;2.81;97.65;104033.47;7392814;19;20021;-66
2022/01/13 09:15:31;;;;;;;68.47;21.70;;;;;;;2.80;97.33;104033.41;7394586;19;20121;-64
2022/01/13 09:18:08;;;;;;;49.00;21.65;;;;;;;2.72;97.08;104046.03;7392375;19;20645;-65
2022/01/13 09:20:40;;;;;;;54.30;22.23;;;;;;;2.72;97.30;104049.53;7394139;19;20024;-65
2022/01/13 09:23:09;;;;;;;44.70;21.73;;;;;;;2.70;97.42;104042.53;7393785;19;20018;-65
2022/01/13 09:25:38;;;;;;;46.10;21.42;;;;;;;2.63;97.10;104041.38;7394100;19;20050;-67
2022/01/13 09:28:09;;;;;;;44.55;21.02;;;;;;;2.62;97.55;104044.78;7390862;19;20021;-65
2022/01/13 09:30:39;;;;;;;85.45;22.73;;;;;;;2.65;97.71;104050.09;7391625;19;20029;-65
2022/01/13 09:33:09;;;;;;;60.88;21.92;;;;;;;2.63;97.76;104048.28;7394736;19;20021;-65
2022/01/13 09:35:40;;;;;;;51.50;21.35;;;;;;;2.64;97.78;104037.09;7395596;19;20021;-66
2022/01/13 09:38:09;;;;;;;48.33;21.15;;;;;;;2.67;97.95;104045.00;7393544;19;20022;-64
2022/01/13 09:40:38;;;;;;;49.35;21.30;;;;;;;2.69;97.90;104051.09;7395939;19;20049;-65
2022/01/13 09:43:07;;;;;;;48.05;22.00;;;;;;;2.70;97.76;104053.75;7395605;19;20022;-64
2022/01/13 09:45:37;;;;;;;47.08;21.00;;;;;;;2.71;97.72;104058.13;7393351;19;20014;-66
2022/01/13 09:48:07;;;;;;;40.10;19.60;;;;;;;2.73;97.60;104056.47;7392397;19;20029;-65
2022/01/13 09:50:36;;;;;;;44.83;21.30;;;;;;;2.76;97.52;104053.13;7393765;19;20074;-65
2022/01/13 09:53:08;;;;;;;42.05;20.02;;;;;;;2.77;97.51;104057.47;7394822;19;20021;-65
2022/01/13 09:55:37;;;;;;;46.28;20.65;;;;;;;2.77;97.20;104057.47;7394338;19;20056;-66
2022/01/13 09:58:10;;;;;;;47.72;21.10;;;;;;;2.81;97.20;104061.06;7389197;19;20102;-65
2022/01/13 10:00:40;;;;;;;45.20;20.75;;;;;;;2.83;97.11;104059.44;7393882;19;20015;-65
2022/01/13 10:03:12;;;;;;;76.40;23.17;;;;;;;2.83;96.83;104062.03;7396664;19;20017;-65
2022/01/13 10:05:49;;;;;;;;;;;;;;;2.72;96.57;104052.13;7394604;19;20026;-67
2022/01/13 10:08:22;;;;;;;56.08;21.17;;;;;;;2.67;96.84;104048.44;7394474;19;20397;-66
2022/01/13 10:10:52;;;;;;;48.67;21.20;;;;;;;2.70;97.10;104056.34;7392767;19;20019;-64
2022/01/13 10:13:40;;;;;;;50.58;22.45;;;;;;;2.71;97.45;104050.34;7394454;19;20010;-65
2022/01/13 10:19:01;;;;;;;52.85;23.90;;;;;;;2.89;98.02;104047.59;7387190;19;20035;-65
2022/01/13 10:21:30;;;;;;;52.60;22.55;;;;;;;2.97;98.00;104042.75;7391384;19;20015;-67
2022/01/13 10:24:06;;;;;;;49.20;23.13;;;;;;;3.05;97.90;104043.03;7390622;19;20017;-67
2022/01/13 10:26:35;;;;;;;51.75;23.10;;;;;;;3.08;97.62;104050.91;7392773;19;20126;-66
2022/01/13 10:29:07;;;;;;;44.40;22.52;;;;;;;3.05;97.08;104049.13;7391306;19;20068;-67
2022/01/13 10:31:50;;;;;;;51.03;21.97;;;;;;;3.03;97.07;104047.28;7392483;19;20007;-65
2022/01/13 10:34:21;;;;;;;43.15;20.88;;;;;;;3.04;96.90;104044.75;7393750;19;20250;-65
2022/01/13 10:37:05;;;;;;;45.80;21.42;;;;;;;3.05;97.15;104048.22;7388970;19;20010;-65
2022/01/13 10:39:57;;;;;;;44.40;21.45;;;;;;;3.07;97.17;104036.22;7391237;19;20011;-66
2022/01/13 10:45:32;;;;;;;40.83;21.02;;;;;;;3.09;96.89;104039.75;7400637;19;20501;-67
2022/01/13 10:48:03;;;;;;;47.55;22.00;;;;;;;3.05;96.49;104032.66;7402292;19;20014;-66
2022/01/13 10:50:34;;;;;;;48.97;22.52;;;;;;;3.10;96.87;104037.22;7401937;19;20073;-67
2022/01/13 10:53:06;;;;;;;54.67;24.05;;;;;;;3.18;97.08;104028.84;7400913;19;20011;-66
2022/01/13 10:55:42;;;;;;;57.08;23.88;;;;;;;3.28;97.12;104029.28;7401222;19;20007;-65
2022/01/13 10:58:11;;;;;;;47.85;23.35;;;;;;;3.27;96.43;104024.91;7398079;19;20066;-65
2022/01/13 11:00:40;;;;;;;48.47;23.92;;;;;;;3.20;95.79;104022.03;7402344;19;20058;-66
2022/01/13 11:03:11;;;;;;;45.88;23.90;;;;;;;3.09;95.79;104024.19;7401362;19;20111;-69
2022/01/13 11:05:43;;;;;;;49.00;24.23;;;;;;;3.06;96.54;104018.91;7400929;19;20036;-66
2022/01/13 11:08:12;;;;;;;56.53;24.92;;;;;;;3.07;96.74;104025.84;7398855;19;20022;-65
2022/01/13 11:10:53;;;;;;;53.20;23.38;;;;;;;3.09;96.84;104021.59;7401635;19;20021;-65
2022/01/13 11:13:23;;;;;;;46.92;21.92;;;;;;;3.08;96.80;104014.66;7398244;19;20015;-65
2022/01/13 11:15:53;;;;;;;48.95;23.55;;;;;;;3.10;97.12;104013.03;7399787;19;20018;-65
2022/01/13 11:18:23;;;;;;;50.28;23.35;;;;;;;3.08;97.23;104012.97;7396936;19;20018;-65
2022/01/13 11:20:53;;;;;;;47.83;23.52;;;;;;;3.09;96.69;104004.34;7398718;19;20007;-64
2022/01/13 11:23:23;;;;;;;46.42;24.10;;;;;;;3.03;96.88;103998.94;7391514;19;20099;-67
2022/01/13 11:25:57;;;;;;;55.00;22.67;;;;;;;3.06;97.29;103999.03;7399424;19;20015;-66
2022/01/13 11:28:26;;;;;;;59.85;29.52;;;;;;;3.09;97.24;104000.88;7396228;19;20474;-63
2022/01/13 11:30:55;;;;;;;48.40;22.73;;;;;;;3.16;97.51;104004.59;7395749;19;20025;-64
2022/01/13 11:33:25;;;;;;;48.00;23.77;;;;;;;3.16;97.17;104007.19;7398157;19;20010;-65
2022/01/13 11:35:57;;;;;;;84.47;26.77;;;;;;;3.15;96.98;104005.41;7398459;19;20018;-67
2022/01/13 11:38:28;;;;;;;44.50;23.45;;;;;;;3.13;96.64;104000.19;7397217;19;20471;-66
2022/01/13 11:41:02;;;;;;;49.13;24.75;;;;;;;3.09;96.78;104013.84;7398497;19;20029;-65
2022/01/13 11:43:35;;;;;;;80.07;25.75;;;;;;;3.08;97.36;104001.69;7397056;19;20015;-63
2022/01/13 11:46:15;;;;;;;92.15;26.38;;;;;;;3.08;97.05;104005.19;7395813;19;20010;-66